Ana Sayfa
METAR-TAF:

METAR-TAF

Havaalanları :

Kuveyt, Kuveyt

Enlem: 29-13N, Boylam: 047-59E, yükseklik: 55 m

Güncel hava durumu gözlemi

Rapor saat 03:00 UTC de 31 dakika önce yapıldı.
Rüzgar kuzeydan 7 kt
Sıcaklık 13°C
Nem 72%
Basınç 1025 hPa
Görüş mesafesi 10 km veya daha fazla
1500 m altında bulut yok ve kümülonimbus yok

METAR: OKBK 160300Z 36007KT CAVOK 13/08 Q1025 NOSIG

Saat: 06:31 (03:31 UTC)

Tahmin

Rapor saat 22:45 UTC de 4 saat ve 46 dakika önce yapıldı.
Ayın 16'si saat 00 UTC'den ayın 17'si saat 06 UTC'ye kadar geçerli Tahmin
Rüzgar kuzey/kuzeybatıdan 10 kt
Görüş mesafesi: 7000 m
Açık gökyüzü

TAF: OKBK 152245Z 1600/1706 34010KT 7000 SKC

4.000'den fazla havaalanı için hava durumu gözlemleri ve tahminleri (METAR ve TAF raporları).

Kullanılabilir istasyonlar harita üzerinde sarı ve kırmızı noktalarla gösterilir.

İstasyonun adını görmek için fareyi noktanın üzerinde gezdirin.

Sonrasında hava gözlem ve tahminlerini görmek için tıklayın.

Haritayı değiştirmek için: yaklaştırmak için siyah artı işaretli yeşil düğmeye ve uzaklaştırmak için de eksi işaretli düğmeye hızla tıklayın; bitişik haritalar için yeşil okları kullanın.


METAR-TAF: